sensor_id;sensor_type;location;lat;lon;timestamp;temperature;humidity
48998;DHT22;34807;51.456;7.244;2022-09-01T00:00:58;20.40;63.90
48998;DHT22;34807;51.456;7.244;2022-09-01T00:03:24;20.40;63.90
48998;DHT22;34807;51.456;7.244;2022-09-01T00:05:50;20.40;64.00
48998;DHT22;34807;51.456;7.244;2022-09-01T00:08:19;20.30;64.00
48998;DHT22;34807;51.456;7.244;2022-09-01T00:10:45;20.30;64.10
48998;DHT22;34807;51.456;7.244;2022-09-01T00:13:11;20.30;63.90
48998;DHT22;34807;51.456;7.244;2022-09-01T00:15:36;20.30;64.20
48998;DHT22;34807;51.456;7.244;2022-09-01T00:18:02;20.30;64.00
48998;DHT22;34807;51.456;7.244;2022-09-01T00:20:28;20.20;64.00
48998;DHT22;34807;51.456;7.244;2022-09-01T00:22:54;20.20;64.10
48998;DHT22;34807;51.456;7.244;2022-09-01T00:25:19;20.20;64.10
48998;DHT22;34807;51.456;7.244;2022-09-01T00:27:46;20.20;64.10
48998;DHT22;34807;51.456;7.244;2022-09-01T00:30:12;20.20;64.30
48998;DHT22;34807;51.456;7.244;2022-09-01T00:32:37;20.20;64.50
48998;DHT22;34807;51.456;7.244;2022-09-01T00:35:03;20.10;64.50
48998;DHT22;34807;51.456;7.244;2022-09-01T00:37:29;20.10;64.30
48998;DHT22;34807;51.456;7.244;2022-09-01T00:39:55;20.10;64.30
48998;DHT22;34807;51.456;7.244;2022-09-01T00:42:20;20.10;64.40
48998;DHT22;34807;51.456;7.244;2022-09-01T00:44:46;20.10;64.30
48998;DHT22;34807;51.456;7.244;2022-09-01T00:47:11;20.10;64.30
48998;DHT22;34807;51.456;7.244;2022-09-01T00:49:38;20.00;64.50
48998;DHT22;34807;51.456;7.244;2022-09-01T00:52:07;20.10;64.50
48998;DHT22;34807;51.456;7.244;2022-09-01T00:54:35;20.00;64.40
48998;DHT22;34807;51.456;7.244;2022-09-01T00:57:02;20.00;64.40
48998;DHT22;34807;51.456;7.244;2022-09-01T00:59:28;20.00;64.50
48998;DHT22;34807;51.456;7.244;2022-09-01T01:01:54;20.00;64.50
48998;DHT22;34807;51.456;7.244;2022-09-01T01:04:22;19.90;64.50
48998;DHT22;34807;51.456;7.244;2022-09-01T01:06:50;19.90;64.50
48998;DHT22;34807;51.456;7.244;2022-09-01T01:09:23;19.90;64.60
48998;DHT22;34807;51.456;7.244;2022-09-01T01:11:49;19.90;64.60
48998;DHT22;34807;51.456;7.244;2022-09-01T01:14:15;19.90;64.80
48998;DHT22;34807;51.456;7.244;2022-09-01T01:16:43;19.90;64.90
48998;DHT22;34807;51.456;7.244;2022-09-01T01:19:52;19.80;64.80
48998;DHT22;34807;51.456;7.244;2022-09-01T01:22:38;19.80;64.70
48998;DHT22;34807;51.456;7.244;2022-09-01T01:25:23;19.80;64.80
48998;DHT22;34807;51.456;7.244;2022-09-01T01:27:49;19.80;65.00
48998;DHT22;34807;51.456;7.244;2022-09-01T01:30:15;19.80;65.00
48998;DHT22;34807;51.456;7.244;2022-09-01T01:32:43;19.70;65.00
48998;DHT22;34807;51.456;7.244;2022-09-01T01:35:10;19.70;65.00
48998;DHT22;34807;51.456;7.244;2022-09-01T01:37:42;19.70;65.00
48998;DHT22;34807;51.456;7.244;2022-09-01T01:40:10;19.60;65.00
48998;DHT22;34807;51.456;7.244;2022-09-01T01:42:43;19.60;65.10
48998;DHT22;34807;51.456;7.244;2022-09-01T01:45:10;19.60;65.00
48998;DHT22;34807;51.456;7.244;2022-09-01T01:47:37;19.60;65.10
48998;DHT22;34807;51.456;7.244;2022-09-01T01:50:03;19.60;65.10
48998;DHT22;34807;51.456;7.244;2022-09-01T01:52:34;19.60;65.10
48998;DHT22;34807;51.456;7.244;2022-09-01T01:54:59;19.50;65.20
48998;DHT22;34807;51.456;7.244;2022-09-01T01:57:25;19.50;65.20
48998;DHT22;34807;51.456;7.244;2022-09-01T01:59:56;19.50;65.20
48998;DHT22;34807;51.456;7.244;2022-09-01T02:02:22;19.50;65.30
48998;DHT22;34807;51.456;7.244;2022-09-01T02:04:48;19.40;65.10
48998;DHT22;34807;51.456;7.244;2022-09-01T02:07:13;19.40;65.50
48998;DHT22;34807;51.456;7.244;2022-09-01T02:09:39;19.40;65.30
48998;DHT22;34807;51.456;7.244;2022-09-01T02:12:08;19.40;65.30
48998;DHT22;34807;51.456;7.244;2022-09-01T02:14:33;19.40;65.40
48998;DHT22;34807;51.456;7.244;2022-09-01T02:16:59;19.40;65.40
48998;DHT22;34807;51.456;7.244;2022-09-01T02:19:26;19.30;65.40
48998;DHT22;34807;51.456;7.244;2022-09-01T02:21:51;19.30;65.40
48998;DHT22;34807;51.456;7.244;2022-09-01T02:24:20;19.30;65.50
48998;DHT22;34807;51.456;7.244;2022-09-01T02:26:46;19.30;65.60
48998;DHT22;34807;51.456;7.244;2022-09-01T02:29:14;19.20;65.50
48998;DHT22;34807;51.456;7.244;2022-09-01T02:31:44;19.20;65.50
48998;DHT22;34807;51.456;7.244;2022-09-01T02:34:10;19.20;65.60
48998;DHT22;34807;51.456;7.244;2022-09-01T02:36:41;19.20;65.60
48998;DHT22;34807;51.456;7.244;2022-09-01T02:39:15;19.10;65.50
48998;DHT22;34807;51.456;7.244;2022-09-01T02:41:41;19.10;65.60
48998;DHT22;34807;51.456;7.244;2022-09-01T02:44:07;19.10;65.60
48998;DHT22;34807;51.456;7.244;2022-09-01T02:46:44;19.10;65.70
48998;DHT22;34807;51.456;7.244;2022-09-01T02:49:11;19.10;65.60
48998;DHT22;34807;51.456;7.244;2022-09-01T02:51:43;19.00;65.60
48998;DHT22;34807;51.456;7.244;2022-09-01T02:54:09;19.00;66.30
48998;DHT22;34807;51.456;7.244;2022-09-01T02:56:35;19.00;65.70
48998;DHT22;34807;51.456;7.244;2022-09-01T02:59:00;19.00;65.80
48998;DHT22;34807;51.456;7.244;2022-09-01T03:01:28;19.00;65.70
48998;DHT22;34807;51.456;7.244;2022-09-01T03:03:56;19.00;65.80
48998;DHT22;34807;51.456;7.244;2022-09-01T03:06:22;18.90;65.70
48998;DHT22;34807;51.456;7.244;2022-09-01T03:08:49;18.90;65.80
48998;DHT22;34807;51.456;7.244;2022-09-01T03:11:14;18.90;65.80
48998;DHT22;34807;51.456;7.244;2022-09-01T03:13:40;18.90;65.80
48998;DHT22;34807;51.456;7.244;2022-09-01T03:16:06;18.90;65.90
48998;DHT22;34807;51.456;7.244;2022-09-01T03:18:32;18.90;65.80
48998;DHT22;34807;51.456;7.244;2022-09-01T03:20:58;18.90;65.90
48998;DHT22;34807;51.456;7.244;2022-09-01T03:23:24;18.80;65.90
48998;DHT22;34807;51.456;7.244;2022-09-01T03:25:50;18.80;65.90
48998;DHT22;34807;51.456;7.244;2022-09-01T03:28:15;18.80;65.90
48998;DHT22;34807;51.456;7.244;2022-09-01T03:30:48;18.80;66.00
48998;DHT22;34807;51.456;7.244;2022-09-01T03:33:14;18.80;66.00
48998;DHT22;34807;51.456;7.244;2022-09-01T03:35:41;18.70;66.00
48998;DHT22;34807;51.456;7.244;2022-09-01T03:38:07;18.70;66.00
48998;DHT22;34807;51.456;7.244;2022-09-01T03:40:33;18.70;66.00
48998;DHT22;34807;51.456;7.244;2022-09-01T03:43:01;18.70;66.10
48998;DHT22;34807;51.456;7.244;2022-09-01T03:45:27;18.70;66.20
48998;DHT22;34807;51.456;7.244;2022-09-01T03:47:55;18.70;66.20
48998;DHT22;34807;51.456;7.244;2022-09-01T03:50:22;18.60;66.10
48998;DHT22;34807;51.456;7.244;2022-09-01T03:52:52;18.60;66.20
48998;DHT22;34807;51.456;7.244;2022-09-01T03:55:20;18.60;66.20
48998;DHT22;34807;51.456;7.244;2022-09-01T03:57:51;18.60;66.30
48998;DHT22;34807;51.456;7.244;2022-09-01T04:00:18;18.60;66.30
48998;DHT22;34807;51.456;7.244;2022-09-01T04:02:50;18.50;66.30
48998;DHT22;34807;51.456;7.244;2022-09-01T04:05:17;18.50;66.30
48998;DHT22;34807;51.456;7.244;2022-09-01T04:07:43;18.50;66.30
48998;DHT22;34807;51.456;7.244;2022-09-01T04:10:10;18.40;66.20
48998;DHT22;34807;51.456;7.244;2022-09-01T04:12:36;18.50;66.30
48998;DHT22;34807;51.456;7.244;2022-09-01T04:15:02;18.50;66.30
48998;DHT22;34807;51.456;7.244;2022-09-01T04:17:28;18.40;66.40
48998;DHT22;34807;51.456;7.244;2022-09-01T04:20:12;18.40;66.40
48998;DHT22;34807;51.456;7.244;2022-09-01T04:22:39;18.40;66.40
48998;DHT22;34807;51.456;7.244;2022-09-01T04:25:05;18.40;66.50
48998;DHT22;34807;51.456;7.244;2022-09-01T04:27:30;18.40;66.50
48998;DHT22;34807;51.456;7.244;2022-09-01T04:29:56;18.30;66.40
48998;DHT22;34807;51.456;7.244;2022-09-01T04:32:21;18.30;66.50
48998;DHT22;34807;51.456;7.244;2022-09-01T04:34:48;18.30;66.50
48998;DHT22;34807;51.456;7.244;2022-09-01T04:37:15;18.30;66.50
48998;DHT22;34807;51.456;7.244;2022-09-01T04:39:46;18.30;66.50
48998;DHT22;34807;51.456;7.244;2022-09-01T04:42:13;18.30;67.20
48998;DHT22;34807;51.456;7.244;2022-09-01T04:44:40;18.30;66.60
48998;DHT22;34807;51.456;7.244;2022-09-01T04:47:07;18.20;66.60
48998;DHT22;34807;51.456;7.244;2022-09-01T04:49:36;18.20;66.60
48998;DHT22;34807;51.456;7.244;2022-09-01T04:52:02;18.20;66.60
48998;DHT22;34807;51.456;7.244;2022-09-01T04:54:28;18.20;66.60
48998;DHT22;34807;51.456;7.244;2022-09-01T04:56:57;18.20;66.60
48998;DHT22;34807;51.456;7.244;2022-09-01T04:59:23;18.20;66.70
48998;DHT22;34807;51.456;7.244;2022-09-01T05:01:49;18.20;66.60
48998;DHT22;34807;51.456;7.244;2022-09-01T05:04:19;18.10;66.70
48998;DHT22;34807;51.456;7.244;2022-09-01T05:06:46;18.10;66.70
48998;DHT22;34807;51.456;7.244;2022-09-01T05:09:13;18.10;66.70
48998;DHT22;34807;51.456;7.244;2022-09-01T05:11:41;18.10;66.70
48998;DHT22;34807;51.456;7.244;2022-09-01T05:14:09;18.10;66.70
48998;DHT22;34807;51.456;7.244;2022-09-01T05:16:35;18.10;66.80
48998;DHT22;34807;51.456;7.244;2022-09-01T05:19:05;18.10;66.80
48998;DHT22;34807;51.456;7.244;2022-09-01T05:21:31;18.10;66.80
48998;DHT22;34807;51.456;7.244;2022-09-01T05:23:57;18.10;66.80
48998;DHT22;34807;51.456;7.244;2022-09-01T05:26:28;18.10;66.80
48998;DHT22;34807;51.456;7.244;2022-09-01T05:28:57;18.00;66.80
48998;DHT22;34807;51.456;7.244;2022-09-01T05:31:24;18.00;66.80
48998;DHT22;34807;51.456;7.244;2022-09-01T05:33:52;18.00;66.80
48998;DHT22;34807;51.456;7.244;2022-09-01T05:36:19;18.00;66.80
48998;DHT22;34807;51.456;7.244;2022-09-01T05:38:46;18.00;66.80
48998;DHT22;34807;51.456;7.244;2022-09-01T05:41:13;18.00;66.90
48998;DHT22;34807;51.456;7.244;2022-09-01T05:43:46;18.00;67.00
48998;DHT22;34807;51.456;7.244;2022-09-01T05:46:13;18.00;66.90
48998;DHT22;34807;51.456;7.244;2022-09-01T05:48:41;18.00;67.00
48998;DHT22;34807;51.456;7.244;2022-09-01T05:51:07;18.00;66.90
48998;DHT22;34807;51.456;7.244;2022-09-01T05:53:33;18.00;66.90
48998;DHT22;34807;51.456;7.244;2022-09-01T05:55:59;18.00;66.90
48998;DHT22;34807;51.456;7.244;2022-09-01T05:58:31;18.00;66.90
48998;DHT22;34807;51.456;7.244;2022-09-01T06:00:57;18.00;67.00
48998;DHT22;34807;51.456;7.244;2022-09-01T06:03:23;17.90;66.80
48998;DHT22;34807;51.456;7.244;2022-09-01T06:05:49;17.90;66.90
48998;DHT22;34807;51.456;7.244;2022-09-01T06:08:21;18.00;67.00
48998;DHT22;34807;51.456;7.244;2022-09-01T06:10:47;18.00;66.90
48998;DHT22;34807;51.456;7.244;2022-09-01T06:13:15;17.90;66.80
48998;DHT22;34807;51.456;7.244;2022-09-01T06:15:42;17.90;66.90
48998;DHT22;34807;51.456;7.244;2022-09-01T06:18:11;17.90;66.80
48998;DHT22;34807;51.456;7.244;2022-09-01T06:20:38;17.90;66.90
48998;DHT22;34807;51.456;7.244;2022-09-01T06:23:04;17.90;66.90
48998;DHT22;34807;51.456;7.244;2022-09-01T06:25:30;18.00;66.90
48998;DHT22;34807;51.456;7.244;2022-09-01T06:27:56;18.00;66.90
48998;DHT22;34807;51.456;7.244;2022-09-01T06:30:22;18.00;66.80
48998;DHT22;34807;51.456;7.244;2022-09-01T06:32:51;18.00;66.80
48998;DHT22;34807;51.456;7.244;2022-09-01T06:35:17;18.00;66.80
48998;DHT22;34807;51.456;7.244;2022-09-01T06:37:43;18.00;66.80
48998;DHT22;34807;51.456;7.244;2022-09-01T06:40:11;18.00;66.80
48998;DHT22;34807;51.456;7.244;2022-09-01T06:42:45;18.00;66.90
48998;DHT22;34807;51.456;7.244;2022-09-01T06:45:14;18.00;66.90
48998;DHT22;34807;51.456;7.244;2022-09-01T06:47:43;18.00;66.90
48998;DHT22;34807;51.456;7.244;2022-09-01T06:50:13;18.00;67.00
48998;DHT22;34807;51.456;7.244;2022-09-01T06:52:42;18.00;66.90
48998;DHT22;34807;51.456;7.244;2022-09-01T06:55:12;18.00;66.90
48998;DHT22;34807;51.456;7.244;2022-09-01T06:57:38;18.00;66.90
48998;DHT22;34807;51.456;7.244;2022-09-01T07:00:05;18.00;66.90
48998;DHT22;34807;51.456;7.244;2022-09-01T07:02:32;18.00;67.00
48998;DHT22;34807;51.456;7.244;2022-09-01T07:04:58;18.00;67.00
48998;DHT22;34807;51.456;7.244;2022-09-01T07:07:23;18.00;67.00
48998;DHT22;34807;51.456;7.244;2022-09-01T07:09:51;18.00;67.00
48998;DHT22;34807;51.456;7.244;2022-09-01T07:12:17;18.00;67.00
48998;DHT22;34807;51.456;7.244;2022-09-01T07:14:43;18.00;67.00
48998;DHT22;34807;51.456;7.244;2022-09-01T07:17:10;18.00;67.00
48998;DHT22;34807;51.456;7.244;2022-09-01T07:19:36;18.00;67.00
48998;DHT22;34807;51.456;7.244;2022-09-01T07:22:03;18.10;67.10
48998;DHT22;34807;51.456;7.244;2022-09-01T07:24:28;18.00;67.00
48998;DHT22;34807;51.456;7.244;2022-09-01T07:26:54;18.00;67.00
48998;DHT22;34807;51.456;7.244;2022-09-01T07:29:19;18.10;66.90
48998;DHT22;34807;51.456;7.244;2022-09-01T07:31:50;18.10;66.80
48998;DHT22;34807;51.456;7.244;2022-09-01T07:34:19;18.00;66.80
48998;DHT22;34807;51.456;7.244;2022-09-01T07:36:45;18.00;66.90
48998;DHT22;34807;51.456;7.244;2022-09-01T07:39:12;18.00;66.90
48998;DHT22;34807;51.456;7.244;2022-09-01T07:41:38;18.10;66.90
48998;DHT22;34807;51.456;7.244;2022-09-01T07:44:06;18.10;66.90
48998;DHT22;34807;51.456;7.244;2022-09-01T07:46:34;18.10;66.90
48998;DHT22;34807;51.456;7.244;2022-09-01T07:49:00;18.10;66.90
48998;DHT22;34807;51.456;7.244;2022-09-01T07:51:26;18.10;66.80
48998;DHT22;34807;51.456;7.244;2022-09-01T07:53:52;18.10;66.80
48998;DHT22;34807;51.456;7.244;2022-09-01T07:56:19;18.20;66.80
48998;DHT22;34807;51.456;7.244;2022-09-01T07:58:45;18.20;66.80
48998;DHT22;34807;51.456;7.244;2022-09-01T08:01:13;18.20;66.70
48998;DHT22;34807;51.456;7.244;2022-09-01T08:03:41;18.20;66.70
48998;DHT22;34807;51.456;7.244;2022-09-01T08:06:08;18.30;66.70
48998;DHT22;34807;51.456;7.244;2022-09-01T08:08:34;18.30;66.70
48998;DHT22;34807;51.456;7.244;2022-09-01T08:11:00;18.30;66.60
48998;DHT22;34807;51.456;7.244;2022-09-01T08:13:26;18.30;66.60
48998;DHT22;34807;51.456;7.244;2022-09-01T08:15:52;18.30;66.50
48998;DHT22;34807;51.456;7.244;2022-09-01T08:18:18;18.40;66.50
48998;DHT22;34807;51.456;7.244;2022-09-01T08:20:43;18.40;66.50
48998;DHT22;34807;51.456;7.244;2022-09-01T08:23:12;18.40;66.50
48998;DHT22;34807;51.456;7.244;2022-09-01T08:25:38;18.40;66.40
48998;DHT22;34807;51.456;7.244;2022-09-01T08:28:05;18.40;66.30
48998;DHT22;34807;51.456;7.244;2022-09-01T08:30:30;18.50;66.30
48998;DHT22;34807;51.456;7.244;2022-09-01T08:33:00;18.50;66.20
48998;DHT22;34807;51.456;7.244;2022-09-01T08:35:26;18.50;66.20
48998;DHT22;34807;51.456;7.244;2022-09-01T08:37:54;18.60;66.30
48998;DHT22;34807;51.456;7.244;2022-09-01T08:40:19;18.60;66.30
48998;DHT22;34807;51.456;7.244;2022-09-01T08:45:20;18.70;66.10
48998;DHT22;34807;51.456;7.244;2022-09-01T08:47:47;18.70;66.10
48998;DHT22;34807;51.456;7.244;2022-09-01T08:50:16;18.80;65.90
48998;DHT22;34807;51.456;7.244;2022-09-01T08:52:46;18.80;65.90
48998;DHT22;34807;51.456;7.244;2022-09-01T08:55:18;18.90;65.80
48998;DHT22;34807;51.456;7.244;2022-09-01T08:57:46;18.90;65.60
48998;DHT22;34807;51.456;7.244;2022-09-01T09:00:16;18.90;65.50
48998;DHT22;34807;51.456;7.244;2022-09-01T09:18:25;19.20;65.20
48998;DHT22;34807;51.456;7.244;2022-09-01T09:20:50;19.20;65.20
48998;DHT22;34807;51.456;7.244;2022-09-01T09:23:20;19.30;65.00
48998;DHT22;34807;51.456;7.244;2022-09-01T09:25:48;19.30;64.90
48998;DHT22;34807;51.456;7.244;2022-09-01T09:28:15;19.30;64.80
48998;DHT22;34807;51.456;7.244;2022-09-01T09:30:40;19.40;64.60
48998;DHT22;34807;51.456;7.244;2022-09-01T09:33:06;19.40;64.50
48998;DHT22;34807;51.456;7.244;2022-09-01T09:35:45;19.50;64.50
48998;DHT22;34807;51.456;7.244;2022-09-01T09:43:23;19.60;64.30
48998;DHT22;34807;51.456;7.244;2022-09-01T09:45:48;19.60;64.20
48998;DHT22;34807;51.456;7.244;2022-09-01T09:48:27;19.60;64.10
48998;DHT22;34807;51.456;7.244;2022-09-01T09:50:52;19.60;64.70
48998;DHT22;34807;51.456;7.244;2022-09-01T09:53:28;19.70;64.00
48998;DHT22;34807;51.456;7.244;2022-09-01T09:58:24;19.80;63.80
48998;DHT22;34807;51.456;7.244;2022-09-01T10:01:07;19.80;63.80
48998;DHT22;34807;51.456;7.244;2022-09-01T10:03:40;19.80;63.60
48998;DHT22;34807;51.456;7.244;2022-09-01T10:06:10;19.90;63.50
48998;DHT22;34807;51.456;7.244;2022-09-01T10:08:41;19.90;63.50
48998;DHT22;34807;51.456;7.244;2022-09-01T10:11:10;20.00;63.50
48998;DHT22;34807;51.456;7.244;2022-09-01T10:13:36;20.00;63.40
48998;DHT22;34807;51.456;7.244;2022-09-01T10:16:14;20.00;63.30
48998;DHT22;34807;51.456;7.244;2022-09-01T10:18:43;20.10;63.30
48998;DHT22;34807;51.456;7.244;2022-09-01T10:21:14;20.10;63.30
48998;DHT22;34807;51.456;7.244;2022-09-01T10:23:40;20.20;63.30
48998;DHT22;34807;51.456;7.244;2022-09-01T10:28:31;20.20;63.20
48998;DHT22;34807;51.456;7.244;2022-09-01T10:30:58;20.30;63.10
48998;DHT22;34807;51.456;7.244;2022-09-01T10:33:24;20.30;63.10
48998;DHT22;34807;51.456;7.244;2022-09-01T10:35:50;20.40;63.10
48998;DHT22;34807;51.456;7.244;2022-09-01T10:38:18;20.50;63.10
48998;DHT22;34807;51.456;7.244;2022-09-01T10:40:45;20.50;63.10
48998;DHT22;34807;51.456;7.244;2022-09-01T10:45:47;20.60;62.90
48998;DHT22;34807;51.456;7.244;2022-09-01T10:50:45;20.80;62.60
48998;DHT22;34807;51.456;7.244;2022-09-01T10:53:36;20.90;62.80
48998;DHT22;34807;51.456;7.244;2022-09-01T10:56:02;21.00;62.80
48998;DHT22;34807;51.456;7.244;2022-09-01T11:01:14;21.20;62.40
48998;DHT22;34807;51.456;7.244;2022-09-01T11:14:21;21.60;62.70
48998;DHT22;34807;51.456;7.244;2022-09-01T11:27:07;22.20;62.40
48998;DHT22;34807;51.456;7.244;2022-09-01T11:29:49;22.30;62.20
48998;DHT22;34807;51.456;7.244;2022-09-01T11:32:16;22.40;62.20
48998;DHT22;34807;51.456;7.244;2022-09-01T11:34:42;22.50;62.10
48998;DHT22;34807;51.456;7.244;2022-09-01T11:37:13;22.60;62.00
48998;DHT22;34807;51.456;7.244;2022-09-01T11:39:41;22.80;62.00
48998;DHT22;34807;51.456;7.244;2022-09-01T11:47:19;23.00;61.50
48998;DHT22;34807;51.456;7.244;2022-09-01T11:49:46;23.20;61.60
48998;DHT22;34807;51.456;7.244;2022-09-01T11:52:16;23.30;61.50
48998;DHT22;34807;51.456;7.244;2022-09-01T11:54:43;23.30;61.20
48998;DHT22;34807;51.456;7.244;2022-09-01T11:57:18;23.40;61.20
48998;DHT22;34807;51.456;7.244;2022-09-01T11:59:44;23.60;61.10
48998;DHT22;34807;51.456;7.244;2022-09-01T12:02:16;23.60;61.00
48998;DHT22;34807;51.456;7.244;2022-09-01T12:04:41;23.70;61.00
48998;DHT22;34807;51.456;7.244;2022-09-01T12:07:10;23.80;61.10
48998;DHT22;34807;51.456;7.244;2022-09-01T12:09:41;23.90;61.10
48998;DHT22;34807;51.456;7.244;2022-09-01T12:12:23;23.90;61.00
48998;DHT22;34807;51.456;7.244;2022-09-01T12:14:56;24.00;61.00
48998;DHT22;34807;51.456;7.244;2022-09-01T12:17:22;24.10;60.90
48998;DHT22;34807;51.456;7.244;2022-09-01T12:19:47;24.10;61.00
48998;DHT22;34807;51.456;7.244;2022-09-01T12:22:14;24.20;60.90
48998;DHT22;34807;51.456;7.244;2022-09-01T12:24:45;24.30;61.10
48998;DHT22;34807;51.456;7.244;2022-09-01T12:27:11;24.30;61.00
48998;DHT22;34807;51.456;7.244;2022-09-01T12:29:36;24.30;61.00
48998;DHT22;34807;51.456;7.244;2022-09-01T12:32:02;24.40;61.00
48998;DHT22;34807;51.456;7.244;2022-09-01T12:37:10;24.50;61.10
48998;DHT22;34807;51.456;7.244;2022-09-01T12:39:40;24.50;61.20
48998;DHT22;34807;51.456;7.244;2022-09-01T12:42:08;24.60;61.20
48998;DHT22;34807;51.456;7.244;2022-09-01T12:44:42;24.70;61.10
48998;DHT22;34807;51.456;7.244;2022-09-01T12:49:52;24.80;61.20
48998;DHT22;34807;51.456;7.244;2022-09-01T12:54:44;24.90;61.00
48998;DHT22;34807;51.456;7.244;2022-09-01T12:57:09;24.90;61.00
48998;DHT22;34807;51.456;7.244;2022-09-01T12:59:35;24.90;61.10
48998;DHT22;34807;51.456;7.244;2022-09-01T13:04:45;24.90;61.10
48998;DHT22;34807;51.456;7.244;2022-09-01T13:07:10;25.00;61.20
48998;DHT22;34807;51.456;7.244;2022-09-01T13:09:36;25.00;61.20
48998;DHT22;34807;51.456;7.244;2022-09-01T13:12:09;25.00;61.40
48998;DHT22;34807;51.456;7.244;2022-09-01T13:14:35;25.00;61.30
48998;DHT22;34807;51.456;7.244;2022-09-01T13:17:00;25.00;61.30
48998;DHT22;34807;51.456;7.244;2022-09-01T13:19:26;25.00;61.40
48998;DHT22;34807;51.456;7.244;2022-09-01T13:21:51;25.00;61.10
48998;DHT22;34807;51.456;7.244;2022-09-01T13:24:17;25.00;61.10
48998;DHT22;34807;51.456;7.244;2022-09-01T13:26:42;25.10;61.30
48998;DHT22;34807;51.456;7.244;2022-09-01T13:29:10;25.20;61.20
48998;DHT22;34807;51.456;7.244;2022-09-01T13:31:36;25.10;61.20
48998;DHT22;34807;51.456;7.244;2022-09-01T13:34:01;25.20;61.00
48998;DHT22;34807;51.456;7.244;2022-09-01T13:36:27;25.30;60.50
48998;DHT22;34807;51.456;7.244;2022-09-01T13:38:52;25.30;61.00
48998;DHT22;34807;51.456;7.244;2022-09-01T13:41:18;25.40;60.90
48998;DHT22;34807;51.456;7.244;2022-09-01T13:43:43;25.40;60.00
48998;DHT22;34807;51.456;7.244;2022-09-01T13:46:09;25.50;60.20
48998;DHT22;34807;51.456;7.244;2022-09-01T13:48:35;25.50;60.50
48998;DHT22;34807;51.456;7.244;2022-09-01T13:51:00;25.60;60.30
48998;DHT22;34807;51.456;7.244;2022-09-01T13:53:26;25.60;60.20
48998;DHT22;34807;51.456;7.244;2022-09-01T13:55:52;25.60;59.90
48998;DHT22;34807;51.456;7.244;2022-09-01T13:58:18;25.70;60.00
48998;DHT22;34807;51.456;7.244;2022-09-01T14:00:44;25.70;60.10
48998;DHT22;34807;51.456;7.244;2022-09-01T14:03:15;25.80;60.00
48998;DHT22;34807;51.456;7.244;2022-09-01T14:05:42;25.80;60.00
48998;DHT22;34807;51.456;7.244;2022-09-01T14:08:09;25.80;59.30
48998;DHT22;34807;51.456;7.244;2022-09-01T14:10:37;25.90;59.90
48998;DHT22;34807;51.456;7.244;2022-09-01T14:13:03;26.00;59.60
48998;DHT22;34807;51.456;7.244;2022-09-01T14:15:28;26.00;59.70
48998;DHT22;34807;51.456;7.244;2022-09-01T14:17:54;26.00;59.90
48998;DHT22;34807;51.456;7.244;2022-09-01T14:20:25;26.10;59.30
48998;DHT22;34807;51.456;7.244;2022-09-01T14:22:51;26.10;59.60
48998;DHT22;34807;51.456;7.244;2022-09-01T14:25:18;26.10;59.60
48998;DHT22;34807;51.456;7.244;2022-09-01T14:27:44;26.20;59.80
48998;DHT22;34807;51.456;7.244;2022-09-01T14:30:12;26.20;59.60
48998;DHT22;34807;51.456;7.244;2022-09-01T14:32:38;26.20;58.80
48998;DHT22;34807;51.456;7.244;2022-09-01T14:35:04;26.20;58.70
48998;DHT22;34807;51.456;7.244;2022-09-01T14:37:32;26.30;58.70
48998;DHT22;34807;51.456;7.244;2022-09-01T14:39:58;26.40;58.40
48998;DHT22;34807;51.456;7.244;2022-09-01T14:42:24;26.40;57.90
48998;DHT22;34807;51.456;7.244;2022-09-01T14:44:50;26.40;58.00
48998;DHT22;34807;51.456;7.244;2022-09-01T14:47:15;26.50;56.80
48998;DHT22;34807;51.456;7.244;2022-09-01T14:49:41;26.70;57.10
48998;DHT22;34807;51.456;7.244;2022-09-01T14:52:07;26.80;56.90
48998;DHT22;34807;51.456;7.244;2022-09-01T14:54:33;26.80;56.60
48998;DHT22;34807;51.456;7.244;2022-09-01T14:56:59;27.00;56.70
48998;DHT22;34807;51.456;7.244;2022-09-01T14:59:25;27.10;56.40
48998;DHT22;34807;51.456;7.244;2022-09-01T15:01:51;27.20;56.50
48998;DHT22;34807;51.456;7.244;2022-09-01T15:04:17;27.40;55.90
48998;DHT22;34807;51.456;7.244;2022-09-01T15:06:43;27.50;55.80
48998;DHT22;34807;51.456;7.244;2022-09-01T15:09:08;27.50;56.00
48998;DHT22;34807;51.456;7.244;2022-09-01T15:11:34;27.60;55.90
48998;DHT22;34807;51.456;7.244;2022-09-01T15:13:59;27.70;55.60
48998;DHT22;34807;51.456;7.244;2022-09-01T15:16:25;27.90;55.30
48998;DHT22;34807;51.456;7.244;2022-09-01T15:18:52;28.10;54.80
48998;DHT22;34807;51.456;7.244;2022-09-01T15:21:24;28.40;54.70
48998;DHT22;34807;51.456;7.244;2022-09-01T15:23:49;28.60;54.60
48998;DHT22;34807;51.456;7.244;2022-09-01T15:26:16;28.70;54.30
48998;DHT22;34807;51.456;7.244;2022-09-01T15:28:45;28.80;54.10
48998;DHT22;34807;51.456;7.244;2022-09-01T15:31:11;28.90;54.00
48998;DHT22;34807;51.456;7.244;2022-09-01T15:33:37;29.00;53.70
48998;DHT22;34807;51.456;7.244;2022-09-01T15:36:03;29.20;53.80
48998;DHT22;34807;51.456;7.244;2022-09-01T15:38:28;29.30;53.60
48998;DHT22;34807;51.456;7.244;2022-09-01T15:40:54;29.50;53.40
48998;DHT22;34807;51.456;7.244;2022-09-01T15:43:20;29.60;53.30
48998;DHT22;34807;51.456;7.244;2022-09-01T15:45:46;29.70;53.10
48998;DHT22;34807;51.456;7.244;2022-09-01T15:48:12;29.80;53.60
48998;DHT22;34807;51.456;7.244;2022-09-01T15:50:37;30.00;52.70
48998;DHT22;34807;51.456;7.244;2022-09-01T15:53:03;30.10;52.70
48998;DHT22;34807;51.456;7.244;2022-09-01T15:58:05;30.40;52.10
48998;DHT22;34807;51.456;7.244;2022-09-01T16:00:31;30.50;51.90
48998;DHT22;34807;51.456;7.244;2022-09-01T16:02:57;30.80;51.70
48998;DHT22;34807;51.456;7.244;2022-09-01T16:05:26;31.00;51.30
48998;DHT22;34807;51.456;7.244;2022-09-01T16:07:52;31.10;51.00
48998;DHT22;34807;51.456;7.244;2022-09-01T16:10:17;31.30;50.90
48998;DHT22;34807;51.456;7.244;2022-09-01T16:12:43;31.50;50.60
48998;DHT22;34807;51.456;7.244;2022-09-01T16:15:13;31.80;50.40
48998;DHT22;34807;51.456;7.244;2022-09-01T16:17:42;31.90;50.20
48998;DHT22;34807;51.456;7.244;2022-09-01T16:20:13;32.10;49.90
48998;DHT22;34807;51.456;7.244;2022-09-01T16:23:29;32.30;49.70
48998;DHT22;34807;51.456;7.244;2022-09-01T16:25:29;32.50;49.60
48998;DHT22;34807;51.456;7.244;2022-09-01T16:27:56;32.70;49.50
48998;DHT22;34807;51.456;7.244;2022-09-01T16:30:23;32.70;49.20
48998;DHT22;34807;51.456;7.244;2022-09-01T16:32:48;32.80;49.10
48998;DHT22;34807;51.456;7.244;2022-09-01T16:35:15;32.90;49.00
48998;DHT22;34807;51.456;7.244;2022-09-01T16:42:53;33.20;49.00
48998;DHT22;34807;51.456;7.244;2022-09-01T16:45:28;33.10;48.90
48998;DHT22;34807;51.456;7.244;2022-09-01T16:58:19;31.90;49.90
48998;DHT22;34807;51.456;7.244;2022-09-01T17:00:54;31.60;49.90
48998;DHT22;34807;51.456;7.244;2022-09-01T17:03:24;31.30;50.10